sensor_id;sensor_type;location;lat;lon;timestamp;temperature;humidity
851;DHT22;412;51.400;7.480;2024-01-07T00:00:03;6.70;99.90
851;DHT22;412;51.400;7.480;2024-01-07T00:02:29;6.70;99.90
851;DHT22;412;51.400;7.480;2024-01-07T00:04:56;6.80;99.90
851;DHT22;412;51.400;7.480;2024-01-07T00:07:23;6.80;99.90
851;DHT22;412;51.400;7.480;2024-01-07T00:09:49;6.80;99.90
851;DHT22;412;51.400;7.480;2024-01-07T00:12:15;6.80;99.90
851;DHT22;412;51.400;7.480;2024-01-07T00:14:40;6.90;99.90
851;DHT22;412;51.400;7.480;2024-01-07T00:17:06;6.80;99.90
851;DHT22;412;51.400;7.480;2024-01-07T00:19:32;6.90;99.90
851;DHT22;412;51.400;7.480;2024-01-07T00:22:01;6.90;99.90
851;DHT22;412;51.400;7.480;2024-01-07T00:24:26;6.80;99.90
851;DHT22;412;51.400;7.480;2024-01-07T00:26:54;6.80;99.90
851;DHT22;412;51.400;7.480;2024-01-07T00:29:21;6.80;99.90
851;DHT22;412;51.400;7.480;2024-01-07T00:31:47;6.70;99.90
851;DHT22;412;51.400;7.480;2024-01-07T00:34:12;6.80;99.90
851;DHT22;412;51.400;7.480;2024-01-07T00:36:38;6.60;99.90
851;DHT22;412;51.400;7.480;2024-01-07T00:39:04;6.60;99.90
851;DHT22;412;51.400;7.480;2024-01-07T00:41:30;6.40;99.90
851;DHT22;412;51.400;7.480;2024-01-07T00:43:56;6.50;99.90
851;DHT22;412;51.400;7.480;2024-01-07T00:46:22;6.60;99.90
851;DHT22;412;51.400;7.480;2024-01-07T00:48:48;6.60;99.90
851;DHT22;412;51.400;7.480;2024-01-07T00:51:13;6.60;99.90
851;DHT22;412;51.400;7.480;2024-01-07T00:53:40;6.50;99.90
851;DHT22;412;51.400;7.480;2024-01-07T00:56:06;6.50;99.90
851;DHT22;412;51.400;7.480;2024-01-07T00:58:32;6.60;99.90
851;DHT22;412;51.400;7.480;2024-01-07T01:00:57;6.60;99.90
851;DHT22;412;51.400;7.480;2024-01-07T01:03:25;6.50;99.90
851;DHT22;412;51.400;7.480;2024-01-07T01:05:52;6.30;99.90
851;DHT22;412;51.400;7.480;2024-01-07T01:08:17;6.20;99.90
851;DHT22;412;51.400;7.480;2024-01-07T01:10:43;6.10;99.90
851;DHT22;412;51.400;7.480;2024-01-07T01:13:09;6.00;99.90
851;DHT22;412;51.400;7.480;2024-01-07T01:15:35;6.00;99.90
851;DHT22;412;51.400;7.480;2024-01-07T01:18:01;6.00;99.90
851;DHT22;412;51.400;7.480;2024-01-07T01:20:27;6.10;99.90
851;DHT22;412;51.400;7.480;2024-01-07T01:22:52;6.20;99.90
851;DHT22;412;51.400;7.480;2024-01-07T01:25:18;6.30;99.90
851;DHT22;412;51.400;7.480;2024-01-07T01:27:44;6.30;99.90
851;DHT22;412;51.400;7.480;2024-01-07T01:30:11;6.30;99.90
851;DHT22;412;51.400;7.480;2024-01-07T01:32:37;6.30;99.90
851;DHT22;412;51.400;7.480;2024-01-07T01:35:02;6.50;99.90
851;DHT22;412;51.400;7.480;2024-01-07T01:37:29;6.40;99.90
851;DHT22;412;51.400;7.480;2024-01-07T01:39:58;6.40;99.90
851;DHT22;412;51.400;7.480;2024-01-07T01:42:24;6.30;99.90
851;DHT22;412;51.400;7.480;2024-01-07T01:44:50;6.30;99.90
851;DHT22;412;51.400;7.480;2024-01-07T01:47:17;6.30;99.90
851;DHT22;412;51.400;7.480;2024-01-07T01:49:45;6.30;99.90
851;DHT22;412;51.400;7.480;2024-01-07T01:52:11;6.40;99.90
851;DHT22;412;51.400;7.480;2024-01-07T01:54:38;6.30;99.90
851;DHT22;412;51.400;7.480;2024-01-07T01:57:04;6.30;99.90
851;DHT22;412;51.400;7.480;2024-01-07T01:59:32;6.30;99.90
851;DHT22;412;51.400;7.480;2024-01-07T02:01:59;6.30;99.90
851;DHT22;412;51.400;7.480;2024-01-07T02:04:26;6.20;99.90
851;DHT22;412;51.400;7.480;2024-01-07T02:06:52;6.30;99.90
851;DHT22;412;51.400;7.480;2024-01-07T02:09:18;6.10;99.90
851;DHT22;412;51.400;7.480;2024-01-07T02:11:44;6.20;99.90
851;DHT22;412;51.400;7.480;2024-01-07T02:14:25;6.10;99.90
851;DHT22;412;51.400;7.480;2024-01-07T02:16:50;6.20;99.90
851;DHT22;412;51.400;7.480;2024-01-07T02:19:17;6.20;99.90
851;DHT22;412;51.400;7.480;2024-01-07T02:21:43;6.20;99.90
851;DHT22;412;51.400;7.480;2024-01-07T02:24:18;6.30;99.90
851;DHT22;412;51.400;7.480;2024-01-07T02:26:44;6.20;99.90
851;DHT22;412;51.400;7.480;2024-01-07T02:29:09;6.00;99.90
851;DHT22;412;51.400;7.480;2024-01-07T02:31:35;5.80;99.90
851;DHT22;412;51.400;7.480;2024-01-07T02:34:01;5.70;99.90
851;DHT22;412;51.400;7.480;2024-01-07T02:36:26;5.80;99.90
851;DHT22;412;51.400;7.480;2024-01-07T02:38:52;5.70;99.90
851;DHT22;412;51.400;7.480;2024-01-07T02:41:18;5.70;99.90
851;DHT22;412;51.400;7.480;2024-01-07T02:43:45;5.70;99.90
851;DHT22;412;51.400;7.480;2024-01-07T02:46:11;5.60;99.90
851;DHT22;412;51.400;7.480;2024-01-07T02:48:37;5.70;99.90
851;DHT22;412;51.400;7.480;2024-01-07T02:51:03;5.60;99.90
851;DHT22;412;51.400;7.480;2024-01-07T02:53:31;5.50;99.90
851;DHT22;412;51.400;7.480;2024-01-07T02:55:57;5.40;99.90
851;DHT22;412;51.400;7.480;2024-01-07T02:58:23;5.50;99.90
851;DHT22;412;51.400;7.480;2024-01-07T03:00:48;5.50;99.90
851;DHT22;412;51.400;7.480;2024-01-07T03:03:14;5.40;99.90
851;DHT22;412;51.400;7.480;2024-01-07T03:05:40;5.50;99.90
851;DHT22;412;51.400;7.480;2024-01-07T03:08:06;5.60;99.90
851;DHT22;412;51.400;7.480;2024-01-07T03:10:32;5.50;99.90
851;DHT22;412;51.400;7.480;2024-01-07T03:12:57;5.50;99.90
851;DHT22;412;51.400;7.480;2024-01-07T03:15:23;5.60;99.90
851;DHT22;412;51.400;7.480;2024-01-07T03:17:49;5.50;99.90
851;DHT22;412;51.400;7.480;2024-01-07T03:20:15;5.60;99.90
851;DHT22;412;51.400;7.480;2024-01-07T03:22:40;5.70;99.90
851;DHT22;412;51.400;7.480;2024-01-07T03:25:07;5.60;99.90
851;DHT22;412;51.400;7.480;2024-01-07T03:27:32;5.70;99.90
851;DHT22;412;51.400;7.480;2024-01-07T03:29:58;5.70;99.90
851;DHT22;412;51.400;7.480;2024-01-07T03:32:24;5.70;99.90
851;DHT22;412;51.400;7.480;2024-01-07T03:34:50;5.70;99.90
851;DHT22;412;51.400;7.480;2024-01-07T03:37:15;5.70;99.90
851;DHT22;412;51.400;7.480;2024-01-07T03:39:43;5.70;99.90
851;DHT22;412;51.400;7.480;2024-01-07T03:42:09;5.70;99.90
851;DHT22;412;51.400;7.480;2024-01-07T03:44:38;5.70;99.90
851;DHT22;412;51.400;7.480;2024-01-07T03:47:04;5.70;99.90
851;DHT22;412;51.400;7.480;2024-01-07T03:49:30;5.60;99.90
851;DHT22;412;51.400;7.480;2024-01-07T03:51:56;5.70;99.90
851;DHT22;412;51.400;7.480;2024-01-07T03:54:22;5.70;99.90
851;DHT22;412;51.400;7.480;2024-01-07T03:56:47;5.70;99.90
851;DHT22;412;51.400;7.480;2024-01-07T03:59:13;5.80;99.90
851;DHT22;412;51.400;7.480;2024-01-07T04:01:39;5.80;99.90
851;DHT22;412;51.400;7.480;2024-01-07T04:04:04;5.80;99.90
851;DHT22;412;51.400;7.480;2024-01-07T04:06:30;5.90;99.90
851;DHT22;412;51.400;7.480;2024-01-07T04:08:56;5.90;99.90
851;DHT22;412;51.400;7.480;2024-01-07T04:11:21;5.80;99.90
851;DHT22;412;51.400;7.480;2024-01-07T04:13:47;5.60;99.90
851;DHT22;412;51.400;7.480;2024-01-07T04:16:17;5.60;99.90
851;DHT22;412;51.400;7.480;2024-01-07T04:18:43;5.50;99.90
851;DHT22;412;51.400;7.480;2024-01-07T04:21:12;5.40;99.90
851;DHT22;412;51.400;7.480;2024-01-07T04:23:41;5.50;99.90
851;DHT22;412;51.400;7.480;2024-01-07T04:26:07;5.50;99.90
851;DHT22;412;51.400;7.480;2024-01-07T04:28:33;5.50;99.90
851;DHT22;412;51.400;7.480;2024-01-07T04:30:59;5.60;99.90
851;DHT22;412;51.400;7.480;2024-01-07T04:33:24;5.50;99.90
851;DHT22;412;51.400;7.480;2024-01-07T04:35:50;5.30;99.90
851;DHT22;412;51.400;7.480;2024-01-07T04:38:16;5.40;99.90
851;DHT22;412;51.400;7.480;2024-01-07T04:40:41;5.50;99.90
851;DHT22;412;51.400;7.480;2024-01-07T04:43:07;5.40;99.90
851;DHT22;412;51.400;7.480;2024-01-07T04:45:33;5.20;99.90
851;DHT22;412;51.400;7.480;2024-01-07T04:47:59;5.20;99.90
851;DHT22;412;51.400;7.480;2024-01-07T04:50:24;5.30;99.90
851;DHT22;412;51.400;7.480;2024-01-07T04:52:50;5.50;99.90
851;DHT22;412;51.400;7.480;2024-01-07T04:55:16;5.40;99.90
851;DHT22;412;51.400;7.480;2024-01-07T04:57:41;5.30;99.90
851;DHT22;412;51.400;7.480;2024-01-07T05:00:07;5.30;99.90
851;DHT22;412;51.400;7.480;2024-01-07T05:02:33;5.20;99.90
851;DHT22;412;51.400;7.480;2024-01-07T05:04:59;5.00;99.90
851;DHT22;412;51.400;7.480;2024-01-07T05:07:25;5.00;99.90
851;DHT22;412;51.400;7.480;2024-01-07T05:09:50;5.00;99.90
851;DHT22;412;51.400;7.480;2024-01-07T05:12:16;4.90;99.90
851;DHT22;412;51.400;7.480;2024-01-07T05:14:42;5.20;99.90
851;DHT22;412;51.400;7.480;2024-01-07T05:17:09;5.20;99.90
851;DHT22;412;51.400;7.480;2024-01-07T05:19:34;5.20;99.90
851;DHT22;412;51.400;7.480;2024-01-07T05:22:00;5.20;99.90
851;DHT22;412;51.400;7.480;2024-01-07T05:24:26;5.30;99.90
851;DHT22;412;51.400;7.480;2024-01-07T05:26:52;5.40;99.90
851;DHT22;412;51.400;7.480;2024-01-07T05:29:18;5.30;99.90
851;DHT22;412;51.400;7.480;2024-01-07T05:31:44;5.10;99.90
851;DHT22;412;51.400;7.480;2024-01-07T05:34:09;5.20;99.90
851;DHT22;412;51.400;7.480;2024-01-07T05:36:35;5.30;99.90
851;DHT22;412;51.400;7.480;2024-01-07T05:39:01;5.40;99.90
851;DHT22;412;51.400;7.480;2024-01-07T05:41:27;5.10;99.90
851;DHT22;412;51.400;7.480;2024-01-07T05:43:53;4.90;99.90
851;DHT22;412;51.400;7.480;2024-01-07T05:46:19;5.00;99.90
851;DHT22;412;51.400;7.480;2024-01-07T05:48:46;5.10;99.90
851;DHT22;412;51.400;7.480;2024-01-07T05:51:13;5.20;99.90
851;DHT22;412;51.400;7.480;2024-01-07T05:53:39;5.30;99.90
851;DHT22;412;51.400;7.480;2024-01-07T05:56:05;5.20;99.90
851;DHT22;412;51.400;7.480;2024-01-07T05:58:31;4.90;99.90
851;DHT22;412;51.400;7.480;2024-01-07T06:00:57;5.00;99.90
851;DHT22;412;51.400;7.480;2024-01-07T06:03:23;5.10;99.90
851;DHT22;412;51.400;7.480;2024-01-07T06:05:49;5.10;99.90
851;DHT22;412;51.400;7.480;2024-01-07T06:08:15;5.20;99.90
851;DHT22;412;51.400;7.480;2024-01-07T06:10:41;5.20;99.90
851;DHT22;412;51.400;7.480;2024-01-07T06:13:06;5.20;99.90
851;DHT22;412;51.400;7.480;2024-01-07T06:15:32;5.40;99.90
851;DHT22;412;51.400;7.480;2024-01-07T06:17:58;5.10;99.90
851;DHT22;412;51.400;7.480;2024-01-07T06:20:24;5.20;99.90
851;DHT22;412;51.400;7.480;2024-01-07T06:22:50;5.20;99.90
851;DHT22;412;51.400;7.480;2024-01-07T06:25:16;5.30;99.90
851;DHT22;412;51.400;7.480;2024-01-07T06:27:42;5.20;99.90
851;DHT22;412;51.400;7.480;2024-01-07T06:30:08;5.30;99.90
851;DHT22;412;51.400;7.480;2024-01-07T06:32:34;5.30;99.90
851;DHT22;412;51.400;7.480;2024-01-07T06:35:01;5.20;99.90
851;DHT22;412;51.400;7.480;2024-01-07T06:37:27;5.30;99.90
851;DHT22;412;51.400;7.480;2024-01-07T06:39:55;5.30;99.90
851;DHT22;412;51.400;7.480;2024-01-07T06:42:21;5.40;99.90
851;DHT22;412;51.400;7.480;2024-01-07T06:44:46;5.20;99.90
851;DHT22;412;51.400;7.480;2024-01-07T06:47:12;5.20;99.90
851;DHT22;412;51.400;7.480;2024-01-07T06:49:38;5.40;99.90
851;DHT22;412;51.400;7.480;2024-01-07T06:52:05;5.30;99.90
851;DHT22;412;51.400;7.480;2024-01-07T06:54:31;5.30;99.90
851;DHT22;412;51.400;7.480;2024-01-07T06:56:56;5.40;99.90
851;DHT22;412;51.400;7.480;2024-01-07T06:59:22;5.50;99.90
851;DHT22;412;51.400;7.480;2024-01-07T07:01:48;5.40;99.90
851;DHT22;412;51.400;7.480;2024-01-07T07:04:14;5.40;99.90
851;DHT22;412;51.400;7.480;2024-01-07T07:06:39;5.50;99.90
851;DHT22;412;51.400;7.480;2024-01-07T07:09:05;5.50;99.90
851;DHT22;412;51.400;7.480;2024-01-07T07:11:32;5.30;99.90
851;DHT22;412;51.400;7.480;2024-01-07T07:13:57;5.40;99.90
851;DHT22;412;51.400;7.480;2024-01-07T07:16:23;5.30;99.90
851;DHT22;412;51.400;7.480;2024-01-07T07:18:49;5.30;99.90
851;DHT22;412;51.400;7.480;2024-01-07T07:21:15;5.50;99.90
851;DHT22;412;51.400;7.480;2024-01-07T07:23:40;5.50;99.90
851;DHT22;412;51.400;7.480;2024-01-07T07:26:06;5.40;99.90
851;DHT22;412;51.400;7.480;2024-01-07T07:28:33;5.50;99.90
851;DHT22;412;51.400;7.480;2024-01-07T07:30:59;5.40;99.90
851;DHT22;412;51.400;7.480;2024-01-07T07:33:25;5.50;99.90
851;DHT22;412;51.400;7.480;2024-01-07T07:35:51;5.60;99.90
851;DHT22;412;51.400;7.480;2024-01-07T07:38:16;5.50;99.90
851;DHT22;412;51.400;7.480;2024-01-07T07:40:42;5.50;99.90
851;DHT22;412;51.400;7.480;2024-01-07T07:43:08;5.50;99.90
851;DHT22;412;51.400;7.480;2024-01-07T07:45:34;5.40;99.90
851;DHT22;412;51.400;7.480;2024-01-07T07:48:00;5.40;99.90
851;DHT22;412;51.400;7.480;2024-01-07T07:50:26;5.50;99.90
851;DHT22;412;51.400;7.480;2024-01-07T07:52:52;5.40;99.90
851;DHT22;412;51.400;7.480;2024-01-07T07:55:19;5.30;99.90
851;DHT22;412;51.400;7.480;2024-01-07T07:57:45;5.20;99.90
851;DHT22;412;51.400;7.480;2024-01-07T08:00:12;5.20;99.90
851;DHT22;412;51.400;7.480;2024-01-07T08:02:38;5.10;99.90
851;DHT22;412;51.400;7.480;2024-01-07T08:05:06;5.20;99.90
851;DHT22;412;51.400;7.480;2024-01-07T08:07:32;5.20;99.90
851;DHT22;412;51.400;7.480;2024-01-07T08:09:58;5.00;99.90
851;DHT22;412;51.400;7.480;2024-01-07T08:12:23;5.00;99.90
851;DHT22;412;51.400;7.480;2024-01-07T08:14:49;5.00;99.90
851;DHT22;412;51.400;7.480;2024-01-07T08:17:15;5.00;99.90
851;DHT22;412;51.400;7.480;2024-01-07T08:19:41;5.00;99.90
851;DHT22;412;51.400;7.480;2024-01-07T08:22:07;5.00;99.90
851;DHT22;412;51.400;7.480;2024-01-07T08:24:34;5.00;99.90
851;DHT22;412;51.400;7.480;2024-01-07T08:27:01;4.90;99.90
851;DHT22;412;51.400;7.480;2024-01-07T08:29:28;4.80;99.90
851;DHT22;412;51.400;7.480;2024-01-07T08:31:54;4.70;99.90
851;DHT22;412;51.400;7.480;2024-01-07T08:34:20;4.60;99.90
851;DHT22;412;51.400;7.480;2024-01-07T08:36:46;4.70;99.90
851;DHT22;412;51.400;7.480;2024-01-07T08:39:14;4.80;99.90
851;DHT22;412;51.400;7.480;2024-01-07T08:41:40;4.60;99.90
851;DHT22;412;51.400;7.480;2024-01-07T08:44:06;4.60;99.90
851;DHT22;412;51.400;7.480;2024-01-07T08:46:34;4.70;99.90
851;DHT22;412;51.400;7.480;2024-01-07T08:49:00;4.70;99.90
851;DHT22;412;51.400;7.480;2024-01-07T08:51:25;4.60;99.90
851;DHT22;412;51.400;7.480;2024-01-07T08:53:51;4.70;99.90
851;DHT22;412;51.400;7.480;2024-01-07T08:56:17;4.70;99.90
851;DHT22;412;51.400;7.480;2024-01-07T08:58:43;4.80;99.90
851;DHT22;412;51.400;7.480;2024-01-07T09:01:09;4.80;99.90
851;DHT22;412;51.400;7.480;2024-01-07T09:03:35;4.80;99.90
851;DHT22;412;51.400;7.480;2024-01-07T09:06:00;4.70;99.90
851;DHT22;412;51.400;7.480;2024-01-07T09:08:26;4.80;99.90
851;DHT22;412;51.400;7.480;2024-01-07T09:10:52;4.70;99.90
851;DHT22;412;51.400;7.480;2024-01-07T09:13:18;4.70;99.90
851;DHT22;412;51.400;7.480;2024-01-07T09:15:43;4.60;99.90
851;DHT22;412;51.400;7.480;2024-01-07T09:18:09;4.60;99.90
851;DHT22;412;51.400;7.480;2024-01-07T09:20:35;4.60;99.90
851;DHT22;412;51.400;7.480;2024-01-07T09:23:01;4.60;99.90
851;DHT22;412;51.400;7.480;2024-01-07T09:25:26;4.70;99.90
851;DHT22;412;51.400;7.480;2024-01-07T09:27:52;4.50;99.90
851;DHT22;412;51.400;7.480;2024-01-07T09:30:18;4.60;99.90
851;DHT22;412;51.400;7.480;2024-01-07T09:32:44;4.60;99.90
851;DHT22;412;51.400;7.480;2024-01-07T09:35:09;4.50;99.90
851;DHT22;412;51.400;7.480;2024-01-07T09:37:35;4.60;99.90
851;DHT22;412;51.400;7.480;2024-01-07T09:40:02;4.60;99.90
851;DHT22;412;51.400;7.480;2024-01-07T09:42:30;4.70;99.90
851;DHT22;412;51.400;7.480;2024-01-07T09:44:56;4.60;99.90
851;DHT22;412;51.400;7.480;2024-01-07T09:47:22;4.50;99.90
851;DHT22;412;51.400;7.480;2024-01-07T09:49:49;4.50;99.90
851;DHT22;412;51.400;7.480;2024-01-07T09:52:15;4.40;99.90
851;DHT22;412;51.400;7.480;2024-01-07T09:54:44;4.40;99.90
851;DHT22;412;51.400;7.480;2024-01-07T09:57:12;4.40;99.90
851;DHT22;412;51.400;7.480;2024-01-07T09:59:37;4.40;99.90
851;DHT22;412;51.400;7.480;2024-01-07T10:02:04;4.90;99.90
851;DHT22;412;51.400;7.480;2024-01-07T10:04:30;6.30;99.90
851;DHT22;412;51.400;7.480;2024-01-07T10:06:57;7.20;99.90
851;DHT22;412;51.400;7.480;2024-01-07T10:09:23;8.10;99.90
851;DHT22;412;51.400;7.480;2024-01-07T10:11:49;8.60;99.90
851;DHT22;412;51.400;7.480;2024-01-07T10:14:15;9.20;99.90
851;DHT22;412;51.400;7.480;2024-01-07T10:16:41;9.70;99.90
851;DHT22;412;51.400;7.480;2024-01-07T10:19:07;10.10;99.90
851;DHT22;412;51.400;7.480;2024-01-07T10:21:34;10.40;99.90
851;DHT22;412;51.400;7.480;2024-01-07T10:24:13;10.40;99.10
851;DHT22;412;51.400;7.480;2024-01-07T10:26:40;10.60;99.90
851;DHT22;412;51.400;7.480;2024-01-07T10:29:06;10.80;99.90
851;DHT22;412;51.400;7.480;2024-01-07T10:31:34;10.80;99.90
851;DHT22;412;51.400;7.480;2024-01-07T10:33:59;10.90;99.90
851;DHT22;412;51.400;7.480;2024-01-07T10:36:25;11.00;99.90
851;DHT22;412;51.400;7.480;2024-01-07T10:38:51;11.30;99.90
851;DHT22;412;51.400;7.480;2024-01-07T10:41:20;11.50;99.90
851;DHT22;412;51.400;7.480;2024-01-07T10:43:47;11.60;99.90
851;DHT22;412;51.400;7.480;2024-01-07T10:46:14;11.80;99.90
851;DHT22;412;51.400;7.480;2024-01-07T10:48:53;11.80;99.90
851;DHT22;412;51.400;7.480;2024-01-07T10:51:20;12.00;99.90
851;DHT22;412;51.400;7.480;2024-01-07T10:53:52;12.10;99.90
851;DHT22;412;51.400;7.480;2024-01-07T10:56:22;12.00;94.90
851;DHT22;412;51.400;7.480;2024-01-07T10:58:50;12.00;99.90
851;DHT22;412;51.400;7.480;2024-01-07T11:01:17;11.90;99.20
851;DHT22;412;51.400;7.480;2024-01-07T11:08:54;11.80;99.90
851;DHT22;412;51.400;7.480;2024-01-07T11:11:35;11.80;97.20
851;DHT22;412;51.400;7.480;2024-01-07T11:14:02;11.90;99.60
851;DHT22;412;51.400;7.480;2024-01-07T11:16:43;11.50;95.60
851;DHT22;412;51.400;7.480;2024-01-07T11:19:12;10.70;83.20
851;DHT22;412;51.400;7.480;2024-01-07T11:21:38;9.60;87.00
851;DHT22;412;51.400;7.480;2024-01-07T11:24:04;9.00;90.50
851;DHT22;412;51.400;7.480;2024-01-07T11:26:30;8.40;91.70
851;DHT22;412;51.400;7.480;2024-01-07T11:28:57;8.00;91.80
851;DHT22;412;51.400;7.480;2024-01-07T11:34:07;7.30;96.20
851;DHT22;412;51.400;7.480;2024-01-07T11:36:37;6.90;98.60
851;DHT22;412;51.400;7.480;2024-01-07T11:39:04;6.30;99.50
851;DHT22;412;51.400;7.480;2024-01-07T11:41:35;5.90;99.90
851;DHT22;412;51.400;7.480;2024-01-07T11:44:02;5.60;99.90
851;DHT22;412;51.400;7.480;2024-01-07T11:46:29;5.40;99.90
851;DHT22;412;51.400;7.480;2024-01-07T11:48:59;5.20;99.90
851;DHT22;412;51.400;7.480;2024-01-07T11:51:29;5.00;99.90
851;DHT22;412;51.400;7.480;2024-01-07T11:54:01;5.00;99.90
851;DHT22;412;51.400;7.480;2024-01-07T11:56:27;4.90;99.90
851;DHT22;412;51.400;7.480;2024-01-07T11:58:53;4.80;99.90
851;DHT22;412;51.400;7.480;2024-01-07T12:01:20;4.70;99.90
851;DHT22;412;51.400;7.480;2024-01-07T12:03:46;4.60;99.90
851;DHT22;412;51.400;7.480;2024-01-07T12:06:12;4.50;99.90
851;DHT22;412;51.400;7.480;2024-01-07T12:08:42;4.50;99.90
851;DHT22;412;51.400;7.480;2024-01-07T12:11:09;4.50;99.90
851;DHT22;412;51.400;7.480;2024-01-07T12:13:37;4.40;99.90
851;DHT22;412;51.400;7.480;2024-01-07T12:16:04;4.40;99.90
851;DHT22;412;51.400;7.480;2024-01-07T12:18:30;4.50;99.90
851;DHT22;412;51.400;7.480;2024-01-07T12:20:57;4.30;99.90
851;DHT22;412;51.400;7.480;2024-01-07T12:23:26;4.20;99.90
851;DHT22;412;51.400;7.480;2024-01-07T12:25:53;4.20;99.90
851;DHT22;412;51.400;7.480;2024-01-07T12:28:19;4.30;99.90
851;DHT22;412;51.400;7.480;2024-01-07T12:30:47;4.30;99.90
851;DHT22;412;51.400;7.480;2024-01-07T12:33:19;4.30;99.90
851;DHT22;412;51.400;7.480;2024-01-07T12:35:46;4.40;99.90
851;DHT22;412;51.400;7.480;2024-01-07T12:38:12;4.40;99.90
851;DHT22;412;51.400;7.480;2024-01-07T12:40:38;4.40;99.90
851;DHT22;412;51.400;7.480;2024-01-07T12:43:05;4.40;99.90
851;DHT22;412;51.400;7.480;2024-01-07T12:45:33;4.50;99.90
851;DHT22;412;51.400;7.480;2024-01-07T12:47:59;4.40;99.90
851;DHT22;412;51.400;7.480;2024-01-07T12:50:28;4.50;99.90
851;DHT22;412;51.400;7.480;2024-01-07T12:52:55;4.50;99.90
851;DHT22;412;51.400;7.480;2024-01-07T12:55:22;4.50;99.90
851;DHT22;412;51.400;7.480;2024-01-07T12:57:48;4.50;99.90
851;DHT22;412;51.400;7.480;2024-01-07T13:00:15;4.50;99.90
851;DHT22;412;51.400;7.480;2024-01-07T13:02:41;4.40;99.90
851;DHT22;412;51.400;7.480;2024-01-07T13:05:08;4.40;99.90
851;DHT22;412;51.400;7.480;2024-01-07T13:07:34;4.30;99.90
851;DHT22;412;51.400;7.480;2024-01-07T13:10:00;4.30;99.90
851;DHT22;412;51.400;7.480;2024-01-07T13:12:26;4.30;99.90
851;DHT22;412;51.400;7.480;2024-01-07T13:14:54;4.40;99.90
851;DHT22;412;51.400;7.480;2024-01-07T13:17:20;4.40;99.90
851;DHT22;412;51.400;7.480;2024-01-07T13:19:46;4.20;99.90
851;DHT22;412;51.400;7.480;2024-01-07T13:22:12;4.20;99.90
851;DHT22;412;51.400;7.480;2024-01-07T13:24:39;4.10;99.90
851;DHT22;412;51.400;7.480;2024-01-07T13:27:05;4.20;99.90
851;DHT22;412;51.400;7.480;2024-01-07T13:29:31;4.20;99.90
851;DHT22;412;51.400;7.480;2024-01-07T13:31:57;4.20;99.90
851;DHT22;412;51.400;7.480;2024-01-07T13:34:22;4.00;99.90
851;DHT22;412;51.400;7.480;2024-01-07T13:36:48;4.00;99.90
851;DHT22;412;51.400;7.480;2024-01-07T13:39:14;4.00;99.90
851;DHT22;412;51.400;7.480;2024-01-07T13:41:42;4.00;99.90
851;DHT22;412;51.400;7.480;2024-01-07T13:44:07;4.00;99.90
851;DHT22;412;51.400;7.480;2024-01-07T13:46:51;4.00;99.90
851;DHT22;412;51.400;7.480;2024-01-07T13:49:17;4.10;99.90
851;DHT22;412;51.400;7.480;2024-01-07T13:51:44;4.00;99.90
851;DHT22;412;51.400;7.480;2024-01-07T13:54:09;4.00;98.80
851;DHT22;412;51.400;7.480;2024-01-07T13:56:39;3.90;99.90
851;DHT22;412;51.400;7.480;2024-01-07T13:59:08;3.90;99.90
851;DHT22;412;51.400;7.480;2024-01-07T14:01:34;4.00;99.90
851;DHT22;412;51.400;7.480;2024-01-07T14:03:59;4.10;99.90
851;DHT22;412;51.400;7.480;2024-01-07T14:06:26;4.20;99.90
851;DHT22;412;51.400;7.480;2024-01-07T14:08:51;4.10;99.90
851;DHT22;412;51.400;7.480;2024-01-07T14:11:18;4.10;99.90
851;DHT22;412;51.400;7.480;2024-01-07T14:13:44;4.10;99.90
851;DHT22;412;51.400;7.480;2024-01-07T14:16:11;4.10;99.90
851;DHT22;412;51.400;7.480;2024-01-07T14:18:37;4.00;99.90
851;DHT22;412;51.400;7.480;2024-01-07T14:21:03;4.00;99.90
851;DHT22;412;51.400;7.480;2024-01-07T14:23:29;4.00;99.90
851;DHT22;412;51.400;7.480;2024-01-07T14:25:57;3.90;99.90
851;DHT22;412;51.400;7.480;2024-01-07T14:28:23;4.00;99.90
851;DHT22;412;51.400;7.480;2024-01-07T14:30:49;4.00;99.90
851;DHT22;412;51.400;7.480;2024-01-07T14:33:14;4.00;99.90
851;DHT22;412;51.400;7.480;2024-01-07T14:35:41;4.00;99.90
851;DHT22;412;51.400;7.480;2024-01-07T14:38:06;3.90;99.90
851;DHT22;412;51.400;7.480;2024-01-07T14:40:32;3.90;99.90
851;DHT22;412;51.400;7.480;2024-01-07T14:42:58;4.00;99.90
851;DHT22;412;51.400;7.480;2024-01-07T14:45:25;4.10;99.90
851;DHT22;412;51.400;7.480;2024-01-07T14:47:51;4.10;99.90
851;DHT22;412;51.400;7.480;2024-01-07T14:50:18;4.10;99.90
851;DHT22;412;51.400;7.480;2024-01-07T14:52:44;4.10;99.90
851;DHT22;412;51.400;7.480;2024-01-07T14:55:10;4.20;99.90
851;DHT22;412;51.400;7.480;2024-01-07T14:57:36;4.10;99.90
851;DHT22;412;51.400;7.480;2024-01-07T15:00:02;4.10;99.90
851;DHT22;412;51.400;7.480;2024-01-07T15:02:30;4.20;99.90
851;DHT22;412;51.400;7.480;2024-01-07T15:04:56;4.10;99.90
851;DHT22;412;51.400;7.480;2024-01-07T15:07:23;4.10;99.90
851;DHT22;412;51.400;7.480;2024-01-07T15:09:49;3.90;99.90
851;DHT22;412;51.400;7.480;2024-01-07T15:12:15;3.90;99.90
851;DHT22;412;51.400;7.480;2024-01-07T15:14:41;4.00;99.90
851;DHT22;412;51.400;7.480;2024-01-07T15:17:06;4.00;99.90
851;DHT22;412;51.400;7.480;2024-01-07T15:19:32;4.00;99.90
851;DHT22;412;51.400;7.480;2024-01-07T15:21:58;4.10;99.90
851;DHT22;412;51.400;7.480;2024-01-07T15:24:24;4.00;99.90
851;DHT22;412;51.400;7.480;2024-01-07T15:26:50;4.00;99.90
851;DHT22;412;51.400;7.480;2024-01-07T15:29:15;4.10;99.90
851;DHT22;412;51.400;7.480;2024-01-07T15:31:41;4.10;99.30
851;DHT22;412;51.400;7.480;2024-01-07T15:34:07;4.00;99.90
851;DHT22;412;51.400;7.480;2024-01-07T15:36:33;4.40;99.90
851;DHT22;412;51.400;7.480;2024-01-07T15:38:59;4.30;99.90
851;DHT22;412;51.400;7.480;2024-01-07T15:41:25;4.30;99.90
851;DHT22;412;51.400;7.480;2024-01-07T15:43:50;4.20;99.90
851;DHT22;412;51.400;7.480;2024-01-07T15:46:16;4.30;99.90
851;DHT22;412;51.400;7.480;2024-01-07T15:48:42;4.30;99.90
851;DHT22;412;51.400;7.480;2024-01-07T15:51:08;4.40;99.90
851;DHT22;412;51.400;7.480;2024-01-07T15:53:33;4.40;99.90
851;DHT22;412;51.400;7.480;2024-01-07T15:56:03;4.40;99.90
851;DHT22;412;51.400;7.480;2024-01-07T15:58:32;4.50;99.90
851;DHT22;412;51.400;7.480;2024-01-07T16:01:00;4.50;98.30
851;DHT22;412;51.400;7.480;2024-01-07T16:03:28;4.50;96.60
851;DHT22;412;51.400;7.480;2024-01-07T16:05:53;4.30;97.70
851;DHT22;412;51.400;7.480;2024-01-07T16:08:19;4.30;97.30
851;DHT22;412;51.400;7.480;2024-01-07T16:10:51;4.20;98.40
851;DHT22;412;51.400;7.480;2024-01-07T16:13:18;4.20;98.80
851;DHT22;412;51.400;7.480;2024-01-07T16:15:44;4.20;97.40
851;DHT22;412;51.400;7.480;2024-01-07T16:18:09;4.30;97.60
851;DHT22;412;51.400;7.480;2024-01-07T16:20:35;4.30;99.90
851;DHT22;412;51.400;7.480;2024-01-07T16:23:01;4.20;99.00
851;DHT22;412;51.400;7.480;2024-01-07T16:25:27;4.20;98.10
851;DHT22;412;51.400;7.480;2024-01-07T16:27:53;4.20;96.80
851;DHT22;412;51.400;7.480;2024-01-07T16:30:19;4.20;96.40
851;DHT22;412;51.400;7.480;2024-01-07T16:32:45;4.20;98.60
851;DHT22;412;51.400;7.480;2024-01-07T16:35:12;4.20;98.00
851;DHT22;412;51.400;7.480;2024-01-07T16:37:38;4.20;98.20
851;DHT22;412;51.400;7.480;2024-01-07T16:40:07;4.20;97.50
851;DHT22;412;51.400;7.480;2024-01-07T16:42:32;4.40;98.90
851;DHT22;412;51.400;7.480;2024-01-07T16:44:59;4.40;97.90
851;DHT22;412;51.400;7.480;2024-01-07T16:47:25;4.20;99.90
851;DHT22;412;51.400;7.480;2024-01-07T16:49:51;4.30;99.60
851;DHT22;412;51.400;7.480;2024-01-07T16:52:17;4.10;99.40